sensor_id;sensor_type;location;lat;lon;timestamp;pressure;altitude;pressure_sealevel;temperature;humidity
6835;BME280;3455;42.150;24.734;2023-03-14T00:01:27;65992.50;;;7.00;47.01
6835;BME280;3455;42.150;24.734;2023-03-14T00:03:53;65979.03;;;6.79;46.60
6835;BME280;3455;42.150;24.734;2023-03-14T00:06:20;65979.63;;;6.80;47.46
6835;BME280;3455;42.150;24.734;2023-03-14T00:08:49;66025.63;;;7.03;47.19
6835;BME280;3455;42.150;24.734;2023-03-14T00:11:18;65988.63;;;7.01;46.84
6835;BME280;3455;42.150;24.734;2023-03-14T00:13:46;65960.06;;;6.62;47.73
6835;BME280;3455;42.150;24.734;2023-03-14T00:16:13;65925.47;;;6.74;47.50
6835;BME280;3455;42.150;24.734;2023-03-14T00:18:40;65936.31;;;6.73;47.61
6835;BME280;3455;42.150;24.734;2023-03-14T00:21:08;65980.59;;;6.94;46.97
6835;BME280;3455;42.150;24.734;2023-03-14T00:23:37;65946.66;;;6.82;47.88
6835;BME280;3455;42.150;24.734;2023-03-14T00:26:08;65954.81;;;6.65;48.67
6835;BME280;3455;42.150;24.734;2023-03-14T00:28:36;65926.09;;;6.68;48.23
6835;BME280;3455;42.150;24.734;2023-03-14T00:31:04;65944.25;;;6.57;49.48
6835;BME280;3455;42.150;24.734;2023-03-14T00:33:31;65950.00;;;6.62;48.37
6835;BME280;3455;42.150;24.734;2023-03-14T00:35:59;65960.56;;;6.70;48.38
6835;BME280;3455;42.150;24.734;2023-03-14T00:38:26;65867.69;;;6.20;49.53
6835;BME280;3455;42.150;24.734;2023-03-14T00:40:54;65953.63;;;6.52;48.60
6835;BME280;3455;42.150;24.734;2023-03-14T00:43:23;65934.66;;;6.65;48.59
6835;BME280;3455;42.150;24.734;2023-03-14T00:45:50;65925.25;;;6.58;48.48
6835;BME280;3455;42.150;24.734;2023-03-14T00:48:18;65903.22;;;6.41;47.71
6835;BME280;3455;42.150;24.734;2023-03-14T00:50:45;65891.31;;;6.35;48.08
6835;BME280;3455;42.150;24.734;2023-03-14T00:53:12;65899.88;;;6.13;48.30
6835;BME280;3455;42.150;24.734;2023-03-14T00:55:40;65940.38;;;6.58;47.98
6835;BME280;3455;42.150;24.734;2023-03-14T00:58:08;65968.16;;;6.52;48.69
6835;BME280;3455;42.150;24.734;2023-03-14T01:00:36;65936.78;;;6.51;49.62
6835;BME280;3455;42.150;24.734;2023-03-14T01:03:04;65906.47;;;6.46;49.66
6835;BME280;3455;42.150;24.734;2023-03-14T01:05:31;65897.25;;;6.38;49.82
6835;BME280;3455;42.150;24.734;2023-03-14T01:07:58;65893.84;;;6.35;49.87
6835;BME280;3455;42.150;24.734;2023-03-14T01:10:24;65883.50;;;6.26;49.92
6835;BME280;3455;42.150;24.734;2023-03-14T01:12:51;65910.66;;;6.18;50.46
6835;BME280;3455;42.150;24.734;2023-03-14T01:15:18;65899.16;;;6.26;50.39
6835;BME280;3455;42.150;24.734;2023-03-14T01:17:46;65926.88;;;6.37;49.68
6835;BME280;3455;42.150;24.734;2023-03-14T01:20:14;65892.69;;;6.34;49.66
6835;BME280;3455;42.150;24.734;2023-03-14T01:22:42;65880.97;;;6.26;49.94
6835;BME280;3455;42.150;24.734;2023-03-14T01:25:11;65888.34;;;6.39;50.06
6835;BME280;3455;42.150;24.734;2023-03-14T01:27:39;65950.03;;;6.27;49.72
6835;BME280;3455;42.150;24.734;2023-03-14T01:30:08;65888.97;;;6.03;50.45
6835;BME280;3455;42.150;24.734;2023-03-14T01:32:35;65924.03;;;6.35;49.29
6835;BME280;3455;42.150;24.734;2023-03-14T01:35:03;65901.09;;;6.26;50.13
6835;BME280;3455;42.150;24.734;2023-03-14T01:37:30;65880.50;;;6.18;50.97
6835;BME280;3455;42.150;24.734;2023-03-14T01:39:57;65910.06;;;6.36;50.99
6835;BME280;3455;42.150;24.734;2023-03-14T01:42:24;65957.22;;;6.42;50.25
6835;BME280;3455;42.150;24.734;2023-03-14T01:44:53;65879.88;;;6.36;50.09
6835;BME280;3455;42.150;24.734;2023-03-14T01:47:20;65879.75;;;6.31;50.59
6835;BME280;3455;42.150;24.734;2023-03-14T01:49:49;65960.66;;;6.45;49.52
6835;BME280;3455;42.150;24.734;2023-03-14T01:52:22;65897.72;;;6.34;49.84
6835;BME280;3455;42.150;24.734;2023-03-14T01:54:52;65906.84;;;6.31;49.43
6835;BME280;3455;42.150;24.734;2023-03-14T01:57:25;65953.78;;;6.39;49.58
6835;BME280;3455;42.150;24.734;2023-03-14T01:59:57;65903.91;;;6.35;49.88
6835;BME280;3455;42.150;24.734;2023-03-14T02:02:24;65920.13;;;6.36;49.36
6835;BME280;3455;42.150;24.734;2023-03-14T02:04:52;65919.41;;;6.31;49.01
6835;BME280;3455;42.150;24.734;2023-03-14T02:07:24;65919.25;;;6.44;48.90
6835;BME280;3455;42.150;24.734;2023-03-14T02:09:55;65930.91;;;6.41;49.35
6835;BME280;3455;42.150;24.734;2023-03-14T02:12:23;65933.66;;;6.21;48.95
6835;BME280;3455;42.150;24.734;2023-03-14T02:14:50;65906.94;;;6.24;49.02
6835;BME280;3455;42.150;24.734;2023-03-14T02:17:18;65899.72;;;6.27;49.45
6835;BME280;3455;42.150;24.734;2023-03-14T02:19:55;65914.38;;;6.31;49.53
6835;BME280;3455;42.150;24.734;2023-03-14T02:22:32;65904.63;;;6.22;49.72
6835;BME280;3455;42.150;24.734;2023-03-14T02:25:05;65904.03;;;6.21;49.87
6835;BME280;3455;42.150;24.734;2023-03-14T02:27:34;65898.16;;;6.30;49.76
6835;BME280;3455;42.150;24.734;2023-03-14T02:30:03;65901.75;;;6.19;49.53
6835;BME280;3455;42.150;24.734;2023-03-14T02:32:34;65923.31;;;6.12;49.74
6835;BME280;3455;42.150;24.734;2023-03-14T02:35:06;65893.94;;;6.10;49.99
6835;BME280;3455;42.150;24.734;2023-03-14T02:37:38;65861.72;;;6.17;49.74
6835;BME280;3455;42.150;24.734;2023-03-14T02:40:08;65914.84;;;5.91;50.15
6835;BME280;3455;42.150;24.734;2023-03-14T02:42:36;65846.59;;;5.88;51.30
6835;BME280;3455;42.150;24.734;2023-03-14T02:45:35;65885.25;;;6.09;51.26
6835;BME280;3455;42.150;24.734;2023-03-14T02:48:05;65856.50;;;5.83;51.78
6835;BME280;3455;42.150;24.734;2023-03-14T02:50:33;65917.00;;;6.06;51.79
6835;BME280;3455;42.150;24.734;2023-03-14T02:53:00;65884.88;;;5.89;52.03
6835;BME280;3455;42.150;24.734;2023-03-14T02:55:27;65868.44;;;5.90;52.54
6835;BME280;3455;42.150;24.734;2023-03-14T02:57:55;65893.44;;;6.03;51.85
6835;BME280;3455;42.150;24.734;2023-03-14T03:00:22;65892.34;;;5.77;51.85
6835;BME280;3455;42.150;24.734;2023-03-14T03:02:49;65848.69;;;5.74;52.30
6835;BME280;3455;42.150;24.734;2023-03-14T03:05:16;65843.31;;;5.54;52.47
6835;BME280;3455;42.150;24.734;2023-03-14T03:07:42;65845.34;;;5.64;52.23
6835;BME280;3455;42.150;24.734;2023-03-14T03:10:10;65821.88;;;5.55;52.54
6835;BME280;3455;42.150;24.734;2023-03-14T03:12:37;65859.56;;;5.55;52.81
6835;BME280;3455;42.150;24.734;2023-03-14T03:15:06;65831.25;;;5.61;51.60
6835;BME280;3455;42.150;24.734;2023-03-14T03:17:33;65820.94;;;5.16;52.23
6835;BME280;3455;42.150;24.734;2023-03-14T03:20:00;65803.31;;;5.04;52.73
6835;BME280;3455;42.150;24.734;2023-03-14T03:22:26;65813.63;;;5.14;52.94
6835;BME280;3455;42.150;24.734;2023-03-14T03:24:53;65848.34;;;5.18;53.01
6835;BME280;3455;42.150;24.734;2023-03-14T03:27:20;65798.72;;;5.00;53.20
6835;BME280;3455;42.150;24.734;2023-03-14T03:29:46;65769.03;;;4.96;53.17
6835;BME280;3455;42.150;24.734;2023-03-14T03:32:15;65796.44;;;4.80;54.22
6835;BME280;3455;42.150;24.734;2023-03-14T03:34:41;65779.28;;;4.94;53.55
6835;BME280;3455;42.150;24.734;2023-03-14T03:37:08;65757.34;;;4.88;53.96
6835;BME280;3455;42.150;24.734;2023-03-14T03:39:35;65820.09;;;4.88;53.99
6835;BME280;3455;42.150;24.734;2023-03-14T03:42:01;65764.88;;;4.88;54.27
6835;BME280;3455;42.150;24.734;2023-03-14T03:44:28;65795.91;;;4.91;53.87
6835;BME280;3455;42.150;24.734;2023-03-14T03:46:55;65751.25;;;4.80;54.88
6835;BME280;3455;42.150;24.734;2023-03-14T03:49:23;65790.97;;;5.02;54.55
6835;BME280;3455;42.150;24.734;2023-03-14T03:51:50;65786.22;;;5.12;53.72
6835;BME280;3455;42.150;24.734;2023-03-14T03:54:17;65852.38;;;5.21;53.41
6835;BME280;3455;42.150;24.734;2023-03-14T03:56:44;65833.09;;;5.20;53.18
6835;BME280;3455;42.150;24.734;2023-03-14T03:59:10;65810.19;;;5.11;53.59
6835;BME280;3455;42.150;24.734;2023-03-14T04:01:37;65816.50;;;4.98;54.06
6835;BME280;3455;42.150;24.734;2023-03-14T04:04:04;65813.94;;;5.05;54.17
6835;BME280;3455;42.150;24.734;2023-03-14T04:06:33;65810.78;;;5.11;54.14
6835;BME280;3455;42.150;24.734;2023-03-14T04:09:00;65828.41;;;5.04;53.90
6835;BME280;3455;42.150;24.734;2023-03-14T04:11:27;65857.69;;;5.13;53.76
6835;BME280;3455;42.150;24.734;2023-03-14T04:13:53;65790.34;;;5.09;53.62
6835;BME280;3455;42.150;24.734;2023-03-14T04:16:22;65849.28;;;5.21;54.05
6835;BME280;3455;42.150;24.734;2023-03-14T04:18:50;65824.41;;;5.19;53.92
6835;BME280;3455;42.150;24.734;2023-03-14T04:21:17;65827.69;;;4.99;54.75
6835;BME280;3455;42.150;24.734;2023-03-14T04:23:45;65837.88;;;5.04;54.98
6835;BME280;3455;42.150;24.734;2023-03-14T04:26:12;65806.75;;;5.07;54.93
6835;BME280;3455;42.150;24.734;2023-03-14T04:28:39;65817.53;;;5.13;54.90
6835;BME280;3455;42.150;24.734;2023-03-14T04:31:09;65828.78;;;5.43;54.63
6835;BME280;3455;42.150;24.734;2023-03-14T04:33:36;65832.00;;;5.30;54.74
6835;BME280;3455;42.150;24.734;2023-03-14T04:36:04;65811.31;;;5.47;55.06
6835;BME280;3455;42.150;24.734;2023-03-14T04:38:31;65836.66;;;5.45;54.75
6835;BME280;3455;42.150;24.734;2023-03-14T04:40:59;65834.59;;;5.41;54.60
6835;BME280;3455;42.150;24.734;2023-03-14T04:43:26;65843.47;;;5.40;55.17
6835;BME280;3455;42.150;24.734;2023-03-14T04:45:53;65929.34;;;5.54;55.11
6835;BME280;3455;42.150;24.734;2023-03-14T04:48:20;65845.47;;;5.69;54.30
6835;BME280;3455;42.150;24.734;2023-03-14T04:50:47;65883.97;;;5.68;54.46
6835;BME280;3455;42.150;24.734;2023-03-14T04:53:15;65827.09;;;5.53;54.53
6835;BME280;3455;42.150;24.734;2023-03-14T04:55:42;65848.16;;;5.56;54.83
6835;BME280;3455;42.150;24.734;2023-03-14T04:58:10;65855.09;;;5.73;54.45
6835;BME280;3455;42.150;24.734;2023-03-14T05:00:36;65886.97;;;5.93;54.44
6835;BME280;3455;42.150;24.734;2023-03-14T05:03:03;65862.97;;;5.94;53.77
6835;BME280;3455;42.150;24.734;2023-03-14T05:05:30;65917.00;;;6.06;53.62
6835;BME280;3455;42.150;24.734;2023-03-14T05:07:57;65915.69;;;6.18;54.21
6835;BME280;3455;42.150;24.734;2023-03-14T05:10:23;65906.13;;;6.26;55.32
6835;BME280;3455;42.150;24.734;2023-03-14T05:12:50;65953.63;;;6.52;54.43
6835;BME280;3455;42.150;24.734;2023-03-14T05:15:19;65919.28;;;6.08;52.85
6835;BME280;3455;42.150;24.734;2023-03-14T05:17:45;65818.34;;;5.58;53.22
6835;BME280;3455;42.150;24.734;2023-03-14T05:20:14;65861.84;;;5.57;53.27
6835;BME280;3455;42.150;24.734;2023-03-14T05:22:42;65857.25;;;5.53;52.62
6835;BME280;3455;42.150;24.734;2023-03-14T05:25:09;65945.16;;;6.31;51.25
6835;BME280;3455;42.150;24.734;2023-03-14T05:27:36;66061.50;;;7.62;48.75
6835;BME280;3455;42.150;24.734;2023-03-14T05:30:03;66248.47;;;8.30;45.35
6835;BME280;3455;42.150;24.734;2023-03-14T05:32:32;66176.31;;;8.55;44.82
6835;BME280;3455;42.150;24.734;2023-03-14T05:34:58;66064.97;;;8.06;44.84
6835;BME280;3455;42.150;24.734;2023-03-14T05:37:26;66091.69;;;8.09;45.32
6835;BME280;3455;42.150;24.734;2023-03-14T05:39:52;66044.84;;;7.88;46.19
6835;BME280;3455;42.150;24.734;2023-03-14T05:42:20;66053.44;;;7.55;45.44
6835;BME280;3455;42.150;24.734;2023-03-14T05:44:47;66029.28;;;7.63;45.60
6835;BME280;3455;42.150;24.734;2023-03-14T05:47:14;66123.69;;;8.40;44.22
6835;BME280;3455;42.150;24.734;2023-03-14T05:49:42;66199.91;;;9.17;42.04
6835;BME280;3455;42.150;24.734;2023-03-14T05:52:09;66212.31;;;9.19;41.61
6835;BME280;3455;42.150;24.734;2023-03-14T05:54:36;66276.28;;;9.99;40.48
6835;BME280;3455;42.150;24.734;2023-03-14T05:57:02;66310.69;;;10.02;39.88
6835;BME280;3455;42.150;24.734;2023-03-14T05:59:29;66268.00;;;10.05;39.56
6835;BME280;3455;42.150;24.734;2023-03-14T06:01:56;66326.19;;;10.68;38.77
6835;BME280;3455;42.150;24.734;2023-03-14T06:04:23;66463.06;;;11.54;37.13
6835;BME280;3455;42.150;24.734;2023-03-14T06:06:52;66521.78;;;12.35;35.85
6835;BME280;3455;42.150;24.734;2023-03-14T06:09:19;66573.16;;;12.92;34.18
6835;BME280;3455;42.150;24.734;2023-03-14T06:11:48;66689.31;;;13.61;32.93
6835;BME280;3455;42.150;24.734;2023-03-14T06:14:15;66494.91;;;11.98;35.22
6835;BME280;3455;42.150;24.734;2023-03-14T06:16:41;66545.03;;;12.38;35.28
6835;BME280;3455;42.150;24.734;2023-03-14T06:19:08;66590.75;;;12.38;35.00
6835;BME280;3455;42.150;24.734;2023-03-14T06:21:35;66560.00;;;12.85;34.73
6835;BME280;3455;42.150;24.734;2023-03-14T06:24:04;66552.88;;;12.58;35.15
6835;BME280;3455;42.150;24.734;2023-03-14T06:26:31;66733.53;;;13.65;33.02
6835;BME280;3455;42.150;24.734;2023-03-14T06:28:58;66733.63;;;14.41;31.82
6835;BME280;3455;42.150;24.734;2023-03-14T06:31:28;66751.91;;;14.49;32.37
6835;BME280;3455;42.150;24.734;2023-03-14T06:33:55;66921.94;;;16.22;29.61
6835;BME280;3455;42.150;24.734;2023-03-14T06:36:22;66888.25;;;15.61;29.50
6835;BME280;3455;42.150;24.734;2023-03-14T06:38:49;66815.63;;;14.83;30.80
6835;BME280;3455;42.150;24.734;2023-03-14T06:41:17;66838.31;;;15.34;30.43
6835;BME280;3455;42.150;24.734;2023-03-14T06:43:44;66811.19;;;15.26;30.75
6835;BME280;3455;42.150;24.734;2023-03-14T06:46:11;67001.84;;;16.93;28.21
6835;BME280;3455;42.150;24.734;2023-03-14T06:48:38;67150.72;;;18.20;27.31
6835;BME280;3455;42.150;24.734;2023-03-14T06:51:05;67091.88;;;17.55;27.27
6835;BME280;3455;42.150;24.734;2023-03-14T06:53:32;67124.66;;;17.70;27.43
6835;BME280;3455;42.150;24.734;2023-03-14T06:55:58;67047.94;;;17.36;27.95
6835;BME280;3455;42.150;24.734;2023-03-14T06:58:27;67036.06;;;16.96;28.77
6835;BME280;3455;42.150;24.734;2023-03-14T07:00:53;67077.59;;;17.24;28.53
6835;BME280;3455;42.150;24.734;2023-03-14T07:03:24;67148.00;;;18.27;26.90
6835;BME280;3455;42.150;24.734;2023-03-14T07:05:50;67182.53;;;18.44;26.35
6835;BME280;3455;42.150;24.734;2023-03-14T07:08:20;67158.97;;;18.05;26.34
6835;BME280;3455;42.150;24.734;2023-03-14T07:10:47;67189.41;;;18.45;26.70
6835;BME280;3455;42.150;24.734;2023-03-14T07:13:15;67186.94;;;18.50;25.62
6835;BME280;3455;42.150;24.734;2023-03-14T07:15:45;67301.59;;;19.54;25.29
6835;BME280;3455;42.150;24.734;2023-03-14T07:18:11;67360.03;;;19.92;24.58
6835;BME280;3455;42.150;24.734;2023-03-14T07:20:38;67501.44;;;20.94;23.73
6835;BME280;3455;42.150;24.734;2023-03-14T07:23:05;67405.66;;;20.18;23.98
6835;BME280;3455;42.150;24.734;2023-03-14T07:25:32;67442.38;;;20.55;23.79
6835;BME280;3455;42.150;24.734;2023-03-14T07:27:59;67426.09;;;20.73;24.28
6835;BME280;3455;42.150;24.734;2023-03-14T07:30:25;67573.78;;;21.35;22.74
6835;BME280;3455;42.150;24.734;2023-03-14T07:32:53;67547.25;;;21.57;22.65
6835;BME280;3455;42.150;24.734;2023-03-14T07:35:20;67545.91;;;21.47;22.11
6835;BME280;3455;42.150;24.734;2023-03-14T07:37:47;67496.44;;;21.19;22.71
6835;BME280;3455;42.150;24.734;2023-03-14T07:40:14;67609.56;;;22.16;21.38
6835;BME280;3455;42.150;24.734;2023-03-14T07:42:41;67685.63;;;22.70;20.70
6835;BME280;3455;42.150;24.734;2023-03-14T07:45:09;67536.44;;;21.29;21.71
6835;BME280;3455;42.150;24.734;2023-03-14T07:47:36;67431.81;;;20.57;22.51
6835;BME280;3455;42.150;24.734;2023-03-14T07:50:05;67399.34;;;20.49;22.90
6835;BME280;3455;42.150;24.734;2023-03-14T07:52:32;67405.50;;;20.73;23.03
6835;BME280;3455;42.150;24.734;2023-03-14T07:54:59;67535.41;;;21.37;22.27
6835;BME280;3455;42.150;24.734;2023-03-14T07:57:26;67582.28;;;21.97;21.83
6835;BME280;3455;42.150;24.734;2023-03-14T07:59:52;67588.31;;;21.80;22.52
6835;BME280;3455;42.150;24.734;2023-03-14T08:02:19;67512.47;;;21.35;21.31
6835;BME280;3455;42.150;24.734;2023-03-14T08:04:47;67549.72;;;21.68;21.15
6835;BME280;3455;42.150;24.734;2023-03-14T08:07:16;67690.66;;;22.61;20.72
6835;BME280;3455;42.150;24.734;2023-03-14T08:09:43;67655.38;;;22.64;21.07
6835;BME280;3455;42.150;24.734;2023-03-14T08:12:10;67699.44;;;22.73;20.74
6835;BME280;3455;42.150;24.734;2023-03-14T08:14:37;68000.78;;;25.04;18.50
6835;BME280;3455;42.150;24.734;2023-03-14T08:17:04;67718.25;;;22.99;19.91
6835;BME280;3455;42.150;24.734;2023-03-14T08:19:33;67933.81;;;24.38;18.73
6835;BME280;3455;42.150;24.734;2023-03-14T08:22:00;67786.44;;;23.22;20.11
6835;BME280;3455;42.150;24.734;2023-03-14T08:24:29;67824.91;;;23.56;20.19
6835;BME280;3455;42.150;24.734;2023-03-14T08:26:55;67756.25;;;23.21;19.81
6835;BME280;3455;42.150;24.734;2023-03-14T08:29:22;67766.81;;;23.19;20.58
6835;BME280;3455;42.150;24.734;2023-03-14T08:31:49;67721.25;;;23.06;19.87
6835;BME280;3455;42.150;24.734;2023-03-14T08:34:16;67814.28;;;23.58;20.38
6835;BME280;3455;42.150;24.734;2023-03-14T08:36:42;68092.94;;;25.55;18.16
6835;BME280;3455;42.150;24.734;2023-03-14T08:39:09;67975.59;;;25.18;18.01
6835;BME280;3455;42.150;24.734;2023-03-14T08:41:37;67908.47;;;24.55;19.18
6835;BME280;3455;42.150;24.734;2023-03-14T08:44:06;67887.69;;;24.34;19.11
6835;BME280;3455;42.150;24.734;2023-03-14T08:46:33;68127.88;;;25.97;17.23
6835;BME280;3455;42.150;24.734;2023-03-14T08:49:00;68158.31;;;26.24;17.29
6835;BME280;3455;42.150;24.734;2023-03-14T08:51:27;67955.84;;;24.85;17.54
6835;BME280;3455;42.150;24.734;2023-03-14T08:53:54;67973.59;;;24.98;17.94
6835;BME280;3455;42.150;24.734;2023-03-14T08:56:21;68045.88;;;25.32;17.61
6835;BME280;3455;42.150;24.734;2023-03-14T08:58:49;68278.03;;;26.95;16.89
6835;BME280;3455;42.150;24.734;2023-03-14T09:01:16;68119.66;;;26.06;17.11
6835;BME280;3455;42.150;24.734;2023-03-14T09:03:44;68073.97;;;25.82;18.09
6835;BME280;3455;42.150;24.734;2023-03-14T09:06:11;68256.19;;;27.03;16.77
6835;BME280;3455;42.150;24.734;2023-03-14T09:08:37;68328.91;;;27.35;16.60
6835;BME280;3455;42.150;24.734;2023-03-14T09:11:07;68317.88;;;27.30;15.83
6835;BME280;3455;42.150;24.734;2023-03-14T09:13:33;68495.88;;;28.77;15.31
6835;BME280;3455;42.150;24.734;2023-03-14T09:16:02;68570.47;;;29.05;15.18
6835;BME280;3455;42.150;24.734;2023-03-14T09:18:29;68345.28;;;27.90;15.76
6835;BME280;3455;42.150;24.734;2023-03-14T09:20:56;68590.28;;;29.34;15.04
6835;BME280;3455;42.150;24.734;2023-03-14T09:23:22;68521.19;;;28.62;15.07
6835;BME280;3455;42.150;24.734;2023-03-14T09:25:54;68213.34;;;26.77;16.20
6835;BME280;3455;42.150;24.734;2023-03-14T09:28:21;68349.38;;;27.48;15.74
6835;BME280;3455;42.150;24.734;2023-03-14T09:30:47;68095.34;;;26.03;16.67
6835;BME280;3455;42.150;24.734;2023-03-14T09:33:16;68235.56;;;26.96;15.92
6835;BME280;3455;42.150;24.734;2023-03-14T09:35:43;68402.06;;;28.15;15.33
6835;BME280;3455;42.150;24.734;2023-03-14T09:38:09;68561.84;;;29.11;15.04
6835;BME280;3455;42.150;24.734;2023-03-14T09:40:37;68645.75;;;29.80;13.97
6835;BME280;3455;42.150;24.734;2023-03-14T09:43:05;68526.66;;;28.81;14.64
6835;BME280;3455;42.150;24.734;2023-03-14T09:45:33;68591.75;;;29.33;14.84
6835;BME280;3455;42.150;24.734;2023-03-14T09:48:03;68528.75;;;28.85;14.90
6835;BME280;3455;42.150;24.734;2023-03-14T09:50:37;68505.72;;;28.76;14.83
6835;BME280;3455;42.150;24.734;2023-03-14T09:53:07;68564.59;;;29.00;15.06
6835;BME280;3455;42.150;24.734;2023-03-14T09:55:35;68430.91;;;28.29;15.60
6835;BME280;3455;42.150;24.734;2023-03-14T09:58:10;68721.84;;;30.28;13.64
6835;BME280;3455;42.150;24.734;2023-03-14T10:00:37;68626.81;;;29.55;13.57
6835;BME280;3455;42.150;24.734;2023-03-14T10:03:21;68616.25;;;29.45;14.15
6835;BME280;3455;42.150;24.734;2023-03-14T10:05:49;68728.72;;;30.21;13.84
6835;BME280;3455;42.150;24.734;2023-03-14T10:08:16;68588.75;;;29.26;14.42
6835;BME280;3455;42.150;24.734;2023-03-14T10:10:43;68694.34;;;30.14;14.25
6835;BME280;3455;42.150;24.734;2023-03-14T10:13:15;68713.56;;;29.71;14.15
6835;BME280;3455;42.150;24.734;2023-03-14T10:15:47;68797.91;;;30.67;14.30
6835;BME280;3455;42.150;24.734;2023-03-14T10:18:15;68660.88;;;29.84;14.63
6835;BME280;3455;42.150;24.734;2023-03-14T10:20:43;68716.28;;;30.01;14.02
6835;BME280;3455;42.150;24.734;2023-03-14T10:23:23;68654.25;;;29.65;14.15
6835;BME280;3455;42.150;24.734;2023-03-14T10:26:05;68478.41;;;28.70;14.30
6835;BME280;3455;42.150;24.734;2023-03-14T10:28:37;68614.81;;;29.46;13.43
6835;BME280;3455;42.150;24.734;2023-03-14T10:31:04;68822.09;;;30.93;12.80
6835;BME280;3455;42.150;24.734;2023-03-14T10:33:33;68738.75;;;30.09;13.46
6835;BME280;3455;42.150;24.734;2023-03-14T10:36:01;69038.44;;;32.13;12.31
6835;BME280;3455;42.150;24.734;2023-03-14T10:38:31;69002.97;;;31.73;12.39
6835;BME280;3455;42.150;24.734;2023-03-14T10:40:58;68634.97;;;29.57;13.53
6835;BME280;3455;42.150;24.734;2023-03-14T10:43:27;68812.53;;;30.76;13.87
6835;BME280;3455;42.150;24.734;2023-03-14T10:45:57;68985.44;;;31.67;13.28
6835;BME280;3455;42.150;24.734;2023-03-14T10:48:30;68600.22;;;29.18;14.00
6835;BME280;3455;42.150;24.734;2023-03-14T10:51:02;68524.72;;;29.11;14.08
6835;BME280;3455;42.150;24.734;2023-03-14T10:53:39;68758.19;;;30.31;13.71
6835;BME280;3455;42.150;24.734;2023-03-14T10:56:06;68928.13;;;31.49;13.38
6835;BME280;3455;42.150;24.734;2023-03-14T10:58:37;68637.16;;;29.45;14.28
6835;BME280;3455;42.150;24.734;2023-03-14T11:01:16;68676.00;;;29.63;14.05
6835;BME280;3455;42.150;24.734;2023-03-14T11:03:52;68935.53;;;31.37;12.90
6835;BME280;3455;42.150;24.734;2023-03-14T11:06:24;68884.31;;;31.38;14.14
6835;BME280;3455;42.150;24.734;2023-03-14T11:08:57;68704.75;;;30.09;13.54
6835;BME280;3455;42.150;24.734;2023-03-14T11:11:31;69098.06;;;32.49;12.22
6835;BME280;3455;42.150;24.734;2023-03-14T11:14:09;69181.28;;;33.06;11.76
6835;BME280;3455;42.150;24.734;2023-03-14T11:16:50;69205.22;;;33.04;12.00
6835;BME280;3455;42.150;24.734;2023-03-14T11:19:37;68839.19;;;31.13;12.52
6835;BME280;3455;42.150;24.734;2023-03-14T11:22:14;68943.34;;;31.53;13.17
6835;BME280;3455;42.150;24.734;2023-03-14T11:24:56;68925.88;;;31.56;13.37
6835;BME280;3455;42.150;24.734;2023-03-14T11:27:32;69021.94;;;31.99;13.63
6835;BME280;3455;42.150;24.734;2023-03-14T11:30:04;68750.84;;;30.47;14.15
6835;BME280;3455;42.150;24.734;2023-03-14T11:32:43;68892.44;;;31.36;13.64
6835;BME280;3455;42.150;24.734;2023-03-14T11:35:16;68790.75;;;30.52;14.17
6835;BME280;3455;42.150;24.734;2023-03-14T11:37:47;68674.81;;;29.83;14.05
6835;BME280;3455;42.150;24.734;2023-03-14T11:40:20;68703.31;;;30.10;14.01
6835;BME280;3455;42.150;24.734;2023-03-14T11:42:52;68760.38;;;30.39;13.88
6835;BME280;3455;42.150;24.734;2023-03-14T11:45:26;68680.09;;;29.87;14.84
6835;BME280;3455;42.150;24.734;2023-03-14T11:48:05;68858.75;;;30.93;13.48
6835;BME280;3455;42.150;24.734;2023-03-14T11:50:35;68891.84;;;31.11;13.16
6835;BME280;3455;42.150;24.734;2023-03-14T11:53:05;68875.75;;;31.03;13.69
6835;BME280;3455;42.150;24.734;2023-03-14T11:55:39;68791.91;;;30.53;13.65
6835;BME280;3455;42.150;24.734;2023-03-14T11:58:12;68869.88;;;30.98;13.19
6835;BME280;3455;42.150;24.734;2023-03-14T12:00:42;69005.44;;;31.85;12.86
6835;BME280;3455;42.150;24.734;2023-03-14T12:03:16;68905.41;;;31.48;13.89
6835;BME280;3455;42.150;24.734;2023-03-14T12:05:48;69105.94;;;32.49;13.21
6835;BME280;3455;42.150;24.734;2023-03-14T12:08:29;69084.44;;;32.08;12.99
6835;BME280;3455;42.150;24.734;2023-03-14T12:11:03;69001.91;;;31.81;13.51
6835;BME280;3455;42.150;24.734;2023-03-14T12:13:34;68672.84;;;29.67;14.47
6835;BME280;3455;42.150;24.734;2023-03-14T12:16:05;68907.94;;;31.43;13.26
6835;BME280;3455;42.150;24.734;2023-03-14T12:18:33;68729.94;;;30.26;14.18
6835;BME280;3455;42.150;24.734;2023-03-14T12:21:05;68573.00;;;29.21;15.11
6835;BME280;3455;42.150;24.734;2023-03-14T12:23:37;68687.25;;;30.03;14.36
6835;BME280;3455;42.150;24.734;2023-03-14T12:26:14;68836.72;;;31.01;14.05
6835;BME280;3455;42.150;24.734;2023-03-14T12:28:44;68910.66;;;31.48;13.68
6835;BME280;3455;42.150;24.734;2023-03-14T12:31:37;68792.13;;;30.72;14.54
6835;BME280;3455;42.150;24.734;2023-03-14T12:34:27;68623.81;;;29.47;14.98
6835;BME280;3455;42.150;24.734;2023-03-14T12:37:01;68648.97;;;29.85;15.25
6835;BME280;3455;42.150;24.734;2023-03-14T12:39:36;68783.44;;;30.48;14.64
6835;BME280;3455;42.150;24.734;2023-03-14T12:42:10;68750.75;;;30.17;14.88
6835;BME280;3455;42.150;24.734;2023-03-14T12:44:43;68828.25;;;30.76;14.46
6835;BME280;3455;42.150;24.734;2023-03-14T12:50:30;68873.13;;;31.03;14.56
6835;BME280;3455;42.150;24.734;2023-03-14T12:55:58;68686.06;;;30.02;15.40
6835;BME280;3455;42.150;24.734;2023-03-14T12:58:34;68673.44;;;29.88;15.21
6835;BME280;3455;42.150;24.734;2023-03-14T13:01:05;68520.78;;;28.76;16.46
6835;BME280;3455;42.150;24.734;2023-03-14T13:03:45;68419.69;;;27.89;17.41
6835;BME280;3455;42.150;24.734;2023-03-14T13:06:12;68432.66;;;28.30;16.92
6835;BME280;3455;42.150;24.734;2023-03-14T13:08:41;68672.16;;;28.76;16.46
6835;BME280;3455;42.150;24.734;2023-03-14T13:11:13;68590.03;;;29.36;16.31
6835;BME280;3455;42.150;24.734;2023-03-14T13:13:48;68558.28;;;29.04;16.37
6835;BME280;3455;42.150;24.734;2023-03-14T13:16:18;68202.72;;;26.84;17.82
6835;BME280;3455;42.150;24.734;2023-03-14T13:18:47;68253.00;;;27.03;17.66
6835;BME280;3455;42.150;24.734;2023-03-14T13:21:19;68227.72;;;26.92;18.05
6835;BME280;3455;42.150;24.734;2023-03-14T13:24:00;68318.44;;;27.30;17.61
6835;BME280;3455;42.150;24.734;2023-03-14T13:26:35;68249.75;;;26.97;17.45
6835;BME280;3455;42.150;24.734;2023-03-14T13:29:18;68396.34;;;27.99;16.75
6835;BME280;3455;42.150;24.734;2023-03-14T13:31:47;68410.88;;;28.02;16.89